createdAt,value
2018-06-13T00:00:12.193Z,0
2018-06-13T00:01:11.884Z,0
2018-06-13T00:02:11.615Z,0
2018-06-13T00:03:11.867Z,0
2018-06-13T00:04:11.858Z,0
2018-06-13T00:05:11.864Z,0
2018-06-13T00:06:11.599Z,0
2018-06-13T00:07:12.104Z,0
2018-06-13T00:08:11.583Z,0
2018-06-13T00:09:11.588Z,0
2018-06-13T00:10:11.849Z,0
2018-06-13T00:11:12.100Z,0
2018-06-13T00:12:11.578Z,0
2018-06-13T00:13:12.091Z,0
2018-06-13T00:14:12.096Z,0
2018-06-13T00:15:11.836Z,0
2018-06-13T00:16:11.817Z,0
2018-06-13T00:17:11.814Z,0
2018-06-13T00:18:12.068Z,0
2018-06-13T00:19:11.302Z,0
2018-06-13T00:20:12.065Z,0
2018-06-13T00:21:11.544Z,0
2018-06-13T00:22:11.846Z,0
2018-06-13T00:23:11.795Z,0
2018-06-13T00:24:11.795Z,0
2018-06-13T00:25:11.776Z,0
2018-06-13T00:26:11.533Z,0
2018-06-13T00:27:12.050Z,0
2018-06-13T00:28:12.024Z,0
2018-06-13T00:29:11.786Z,0
2018-06-13T00:30:12.034Z,0
2018-06-13T00:31:11.766Z,0
2018-06-13T00:32:11.750Z,0
2018-06-13T00:33:11.768Z,0
2018-06-13T00:34:11.752Z,0
2018-06-13T00:35:11.482Z,0
2018-06-13T00:36:11.483Z,0
2018-06-13T00:37:12.098Z,0
2018-06-13T00:38:11.739Z,0
2018-06-13T00:39:11.988Z,0
2018-06-13T00:40:11.725Z,0
2018-06-13T00:41:11.725Z,0
2018-06-13T00:42:11.712Z,0
2018-06-13T00:43:11.721Z,0
2018-06-13T00:44:11.987Z,0
2018-06-13T00:45:11.450Z,0
2018-06-13T00:46:11.957Z,0
2018-06-13T00:47:11.601Z,0
2018-06-13T00:48:11.955Z,0
2018-06-13T00:49:11.437Z,0
2018-06-13T00:50:11.430Z,0
2018-06-13T00:51:11.456Z,0
2018-06-13T00:52:11.680Z,0
2018-06-13T00:53:11.420Z,0
2018-06-13T00:54:11.922Z,0
2018-06-13T00:55:11.415Z,0
2018-06-13T00:56:11.658Z,0
2018-06-13T00:57:11.932Z,0
2018-06-13T00:58:11.401Z,0
2018-06-13T00:59:11.913Z,0
2018-06-13T01:00:11.400Z,0
2018-06-13T01:01:11.669Z,0
2018-06-13T01:02:11.391Z,0
2018-06-13T01:03:11.646Z,0
2018-06-13T01:04:11.371Z,0
2018-06-13T01:05:11.892Z,0
2018-06-13T01:06:11.887Z,0
2018-06-13T01:07:11.112Z,0
2018-06-13T01:08:11.627Z,0
2018-06-13T01:09:11.633Z,0
2018-06-13T01:10:11.120Z,0
2018-06-13T01:11:11.874Z,0
2018-06-13T01:12:11.606Z,0
2018-06-13T01:13:11.611Z,0
2018-06-13T01:14:11.346Z,0
2018-06-13T01:15:11.615Z,0
2018-06-13T01:16:11.876Z,0
2018-06-13T01:17:11.594Z,0
2018-06-13T01:18:11.064Z,0
2018-06-13T01:19:11.836Z,0
2018-06-13T01:20:11.571Z,0
2018-06-13T01:21:11.313Z,0
2018-06-13T01:22:11.558Z,0
2018-06-13T01:23:11.559Z,0
2018-06-13T01:24:11.552Z,0
2018-06-13T01:25:11.356Z,0
2018-06-13T01:26:11.616Z,0
2018-06-13T01:27:11.804Z,0
2018-06-13T01:28:11.820Z,0
2018-06-13T01:29:11.281Z,0
2018-06-13T01:30:11.534Z,0
2018-06-13T01:31:11.530Z,0
2018-06-13T01:32:11.814Z,0
2018-06-13T01:33:11.771Z,0
2018-06-13T01:34:11.515Z,0
2018-06-13T01:35:11.794Z,0
2018-06-13T01:36:11.505Z,0
2018-06-13T01:37:11.775Z,0
2018-06-13T01:38:11.499Z,0
2018-06-13T01:39:11.752Z,0
2018-06-13T01:40:11.769Z,0
2018-06-13T01:41:10.971Z,0
2018-06-13T01:42:11.490Z,0
2018-06-13T01:43:11.475Z,0
2018-06-13T01:44:11.469Z,0
2018-06-13T01:45:11.725Z,0
2018-06-13T01:46:11.474Z,0
2018-06-13T01:47:11.726Z,0
2018-06-13T01:48:11.721Z,0
2018-06-13T01:49:11.453Z,0
2018-06-13T01:50:11.708Z,0
2018-06-13T01:51:11.714Z,0
2018-06-13T01:52:11.185Z,0
2018-06-13T01:53:11.433Z,0
2018-06-13T01:54:11.909Z,0
2018-06-13T01:55:11.174Z,0
2018-06-13T01:56:11.424Z,0
2018-06-13T01:57:11.430Z,0
2018-06-13T01:58:11.170Z,0
2018-06-13T01:59:11.667Z,0
2018-06-13T02:00:11.415Z,0
2018-06-13T02:01:11.672Z,0
2018-06-13T02:02:11.410Z,0
2018-06-13T02:03:11.195Z,0
2018-06-13T02:04:11.400Z,0
2018-06-13T02:05:10.621Z,0
2018-06-13T02:06:11.655Z,0
2018-06-13T02:07:11.651Z,0
2018-06-13T02:08:11.139Z,0
2018-06-13T02:09:11.398Z,0
2018-06-13T02:10:11.111Z,0
2018-06-13T02:11:11.630Z,0
2018-06-13T02:12:11.357Z,0
2018-06-13T02:13:11.643Z,0
2018-06-13T02:14:11.100Z,0
2018-06-13T02:15:11.624Z,0
2018-06-13T02:16:11.641Z,0
2018-06-13T02:17:11.596Z,0
2018-06-13T02:18:11.344Z,0
2018-06-13T02:19:11.070Z,0
2018-06-13T02:20:11.072Z,0
2018-06-13T02:21:11.073Z,0
2018-06-13T02:22:11.580Z,0
2018-06-13T02:23:11.564Z,0
2018-06-13T02:24:11.050Z,0
2018-06-13T02:25:11.308Z,0
2018-06-13T02:26:11.297Z,0
2018-06-13T02:27:11.037Z,0
2018-06-13T02:28:11.543Z,0
2018-06-13T02:29:11.549Z,0
2018-06-13T02:30:11.292Z,0
2018-06-13T02:31:11.021Z,0
2018-06-13T02:32:11.275Z,0
2018-06-13T02:33:11.295Z,0
2018-06-13T02:34:11.534Z,0
2018-06-13T02:35:11.275Z,0
2018-06-13T02:36:11.033Z,0
2018-06-13T02:37:11.508Z,0
2018-06-13T02:38:11.250Z,0
2018-06-13T02:39:11.499Z,0
2018-06-13T02:40:11.010Z,0
2018-06-13T02:41:11.510Z,0
2018-06-13T02:42:11.235Z,0
2018-06-13T02:43:10.967Z,0
2018-06-13T02:44:11.228Z,0
2018-06-13T02:45:11.473Z,0
2018-06-13T02:46:10.959Z,0
2018-06-13T02:47:11.469Z,0
2018-06-13T02:48:11.459Z,0
2018-06-13T02:49:11.459Z,0
2018-06-13T02:50:10.682Z,0
2018-06-13T02:51:10.679Z,0
2018-06-13T02:52:11.190Z,5
2018-06-13T02:53:11.696Z,5
2018-06-13T02:54:11.185Z,5
2018-06-13T02:55:11.171Z,5
2018-06-13T02:56:11.191Z,5
2018-06-13T02:57:11.173Z,5
2018-06-13T02:58:11.417Z,5
2018-06-13T02:59:11.161Z,5
2018-06-13T03:00:10.900Z,5
2018-06-13T03:01:11.142Z,5
2018-06-13T03:02:11.403Z,5
2018-06-13T03:03:11.133Z,5
2018-06-13T03:04:10.626Z,10
2018-06-13T03:05:11.400Z,10
2018-06-13T03:06:10.604Z,10
2018-06-13T03:07:11.115Z,10
2018-06-13T03:08:11.112Z,15
2018-06-13T03:09:11.116Z,15
2018-06-13T03:10:11.381Z,15
2018-06-13T03:11:11.100Z,15
2018-06-13T03:12:11.103Z,20
2018-06-13T03:13:11.098Z,20
2018-06-13T03:14:11.351Z,20
2018-06-13T03:15:11.117Z,25
2018-06-13T03:16:10.820Z,25
2018-06-13T03:17:11.067Z,30
2018-06-13T03:18:11.115Z,30
2018-06-13T03:19:11.330Z,35
2018-06-13T03:20:11.054Z,35
2018-06-13T03:21:11.049Z,35
2018-06-13T03:22:11.309Z,35
2018-06-13T03:23:11.045Z,40
2018-06-13T03:24:10.775Z,40
2018-06-13T03:25:10.770Z,40
2018-06-13T03:26:11.298Z,45
2018-06-13T03:27:11.288Z,45
2018-06-13T03:28:11.018Z,45
2018-06-13T03:29:11.030Z,45
2018-06-13T03:30:10.784Z,45
2018-06-13T03:31:11.266Z,45
2018-06-13T03:32:10.748Z,45
2018-06-13T03:33:10.732Z,45
2018-06-13T03:34:10.474Z,50
2018-06-13T03:35:11.249Z,50
2018-06-13T03:36:11.251Z,50
2018-06-13T03:37:11.240Z,50
2018-06-13T03:38:10.714Z,50
2018-06-13T03:39:10.965Z,50
2018-06-13T03:40:11.280Z,55
2018-06-13T03:41:11.648Z,55
2018-06-13T03:42:11.216Z,60
2018-06-13T03:43:10.692Z,60
2018-06-13T03:44:10.956Z,60
2018-06-13T03:45:10.942Z,60
2018-06-13T03:46:10.932Z,65
2018-06-13T03:47:10.676Z,65
2018-06-13T03:48:11.182Z,70
2018-06-13T03:49:10.922Z,75
2018-06-13T03:50:10.661Z,75
2018-06-13T03:51:10.659Z,75
2018-06-13T03:52:10.652Z,75
2018-06-13T03:53:10.657Z,75
2018-06-13T03:54:10.392Z,75
2018-06-13T03:55:10.899Z,75
2018-06-13T03:56:10.420Z,75
2018-06-13T03:57:11.145Z,70
2018-06-13T03:58:11.170Z,70
2018-06-13T03:59:10.879Z,70
2018-06-13T04:00:10.878Z,70
2018-06-13T04:01:10.873Z,75
2018-06-13T04:02:10.612Z,80
2018-06-13T04:03:10.606Z,80
2018-06-13T04:04:10.859Z,85
2018-06-13T04:05:10.873Z,85
2018-06-13T04:06:11.124Z,85
2018-06-13T04:07:11.075Z,85
2018-06-13T04:08:10.842Z,85
2018-06-13T04:09:10.582Z,90
2018-06-13T04:10:10.848Z,90
2018-06-13T04:11:10.847Z,90
2018-06-13T04:12:10.827Z,90
2018-06-13T04:13:10.787Z,90
2018-06-13T04:14:10.576Z,95
2018-06-13T04:15:10.815Z,100
2018-06-13T04:16:11.036Z,105
2018-06-13T04:17:10.755Z,110
2018-06-13T04:18:10.248Z,115
2018-06-13T04:19:10.244Z,120
2018-06-13T04:20:10.490Z,120
2018-06-13T04:21:10.489Z,120
2018-06-13T04:22:10.992Z,120
2018-06-13T04:23:11.036Z,125
2018-06-13T04:24:10.978Z,125
2018-06-13T04:25:10.468Z,125
2018-06-13T04:26:10.222Z,135
2018-06-13T04:27:10.971Z,145
2018-06-13T04:28:10.961Z,160
2018-06-13T04:29:10.714Z,175
2018-06-13T04:30:10.705Z,205
2018-06-13T04:31:10.696Z,220
2018-06-13T04:32:10.701Z,235
2018-06-13T04:33:10.691Z,250
2018-06-13T04:34:10.693Z,255
2018-06-13T04:35:10.695Z,260
2018-06-13T04:36:10.683Z,265
2018-06-13T04:37:10.422Z,275
2018-06-13T04:38:10.686Z,285
2018-06-13T04:39:10.976Z,295
2018-06-13T04:40:10.678Z,305
2018-06-13T04:41:10.919Z,300
2018-06-13T04:42:11.060Z,290
2018-06-13T04:43:10.658Z,270
2018-06-13T04:44:10.408Z,255
2018-06-13T04:45:10.456Z,235
2018-06-13T04:46:10.909Z,225
2018-06-13T04:47:10.897Z,220
2018-06-13T04:48:10.650Z,220
2018-06-13T04:49:10.393Z,220
2018-06-13T04:50:10.894Z,220
2018-06-13T04:51:10.650Z,220
2018-06-13T04:52:10.884Z,220
2018-06-13T04:53:10.633Z,220
2018-06-13T04:54:10.885Z,210
2018-06-13T04:55:10.876Z,205
2018-06-13T04:56:10.621Z,200
2018-06-13T04:57:10.866Z,200
2018-06-13T04:58:10.370Z,205
2018-06-13T04:59:10.864Z,215
2018-06-13T05:00:10.879Z,210
2018-06-13T05:01:10.096Z,205
2018-06-13T05:02:10.855Z,195
2018-06-13T05:03:10.597Z,185
2018-06-13T05:04:10.591Z,175
2018-06-13T05:05:10.592Z,170
2018-06-13T05:06:10.843Z,165
2018-06-13T05:07:10.584Z,165
2018-06-13T05:08:10.587Z,165
2018-06-13T05:09:10.836Z,165
2018-06-13T05:10:10.828Z,160
2018-06-13T05:11:10.571Z,155
2018-06-13T05:12:10.588Z,145
2018-06-13T05:13:10.314Z,145
2018-06-13T05:14:10.817Z,140
2018-06-13T05:15:10.824Z,135
2018-06-13T05:16:10.559Z,130
2018-06-13T05:17:10.554Z,130
2018-06-13T05:18:10.553Z,135
2018-06-13T05:19:10.613Z,135
2018-06-13T05:20:10.040Z,135
2018-06-13T05:21:10.546Z,140
2018-06-13T05:22:10.540Z,150
2018-06-13T05:23:10.816Z,155
2018-06-13T05:24:10.784Z,170
2018-06-13T05:25:10.527Z,185
2018-06-13T05:26:10.539Z,195
2018-06-13T05:27:10.525Z,200
2018-06-13T05:28:10.519Z,210
2018-06-13T05:29:10.014Z,220
2018-06-13T05:30:10.270Z,225
2018-06-13T05:31:10.771Z,235
2018-06-13T05:32:10.768Z,235
2018-06-13T05:33:10.521Z,235
2018-06-13T05:34:10.762Z,235
2018-06-13T05:35:10.974Z,235
2018-06-13T05:36:10.761Z,235
2018-06-13T05:37:10.745Z,225
2018-06-13T05:38:10.745Z,215
2018-06-13T05:39:10.274Z,205
2018-06-13T05:40:10.237Z,195
2018-06-13T05:41:10.236Z,190
2018-06-13T05:42:10.497Z,190
2018-06-13T05:43:10.728Z,190
2018-06-13T05:44:10.787Z,200
2018-06-13T05:45:10.262Z,220
2018-06-13T05:46:10.504Z,245
2018-06-13T05:47:10.747Z,260
2018-06-13T05:48:10.732Z,275
2018-06-13T05:49:10.207Z,285
2018-06-13T05:50:10.713Z,290
2018-06-13T05:51:10.196Z,285
2018-06-13T05:52:10.198Z,275
2018-06-13T05:53:10.489Z,270
2018-06-13T05:54:10.452Z,260
2018-06-13T05:55:10.890Z,260
2018-06-13T05:56:10.453Z,270
2018-06-13T05:57:10.193Z,270
2018-06-13T05:58:10.707Z,275
2018-06-13T05:59:10.439Z,275
2018-06-13T06:00:10.433Z,275
2018-06-13T06:01:10.299Z,270
2018-06-13T06:02:10.696Z,260
2018-06-13T06:03:10.422Z,255
2018-06-13T06:04:10.429Z,240
2018-06-13T06:05:10.422Z,235
2018-06-13T06:06:10.427Z,240
2018-06-13T06:07:10.181Z,250
2018-06-13T06:08:10.367Z,255
2018-06-13T06:09:10.734Z,270
2018-06-13T06:10:10.719Z,280
2018-06-13T06:11:10.672Z,285
2018-06-13T06:12:10.658Z,300
2018-06-13T06:13:10.396Z,310
2018-06-13T06:14:10.644Z,310
2018-06-13T06:15:10.392Z,320
2018-06-13T06:16:09.886Z,325
2018-06-13T06:17:10.644Z,330
2018-06-13T06:18:10.152Z,335
2018-06-13T06:19:10.144Z,335
2018-06-13T06:20:10.400Z,340
2018-06-13T06:21:09.934Z,340
2018-06-13T06:22:10.388Z,345
2018-06-13T06:23:10.678Z,355
2018-06-13T06:24:09.919Z,365
2018-06-13T06:25:10.387Z,365
2018-06-13T06:26:10.149Z,370
2018-06-13T06:27:10.648Z,375
2018-06-13T06:28:10.644Z,375
2018-06-13T06:29:10.616Z,380
2018-06-13T06:30:10.360Z,380
2018-06-13T06:31:10.119Z,385
2018-06-13T06:32:10.392Z,385
2018-06-13T06:33:10.616Z,390
2018-06-13T06:34:10.357Z,395
2018-06-13T06:35:10.114Z,400
2018-06-13T06:36:10.612Z,400
2018-06-13T06:37:10.621Z,400
2018-06-13T06:38:10.105Z,385
2018-06-13T06:39:10.113Z,365
2018-06-13T06:40:10.091Z,330
2018-06-13T06:41:10.349Z,300
2018-06-13T06:42:10.174Z,280
2018-06-13T06:43:10.333Z,265
2018-06-13T06:44:10.602Z,260
2018-06-13T06:45:10.623Z,255
2018-06-13T06:46:09.835Z,245
2018-06-13T06:47:10.636Z,240
2018-06-13T06:48:10.349Z,220
2018-06-13T06:49:10.636Z,205
2018-06-13T06:50:10.343Z,195
2018-06-13T06:51:10.392Z,190
2018-06-13T06:52:10.610Z,185
2018-06-13T06:53:10.080Z,180
2018-06-13T06:54:10.595Z,200
2018-06-13T06:55:10.655Z,210
2018-06-13T06:56:10.091Z,200
2018-06-13T06:57:10.343Z,195
2018-06-13T06:58:10.738Z,190
2018-06-13T06:59:10.060Z,190
2018-06-13T07:00:10.055Z,190
2018-06-13T07:01:10.331Z,200
2018-06-13T07:02:10.331Z,210
2018-06-13T07:03:10.327Z,230
2018-06-13T07:04:10.079Z,240
2018-06-13T07:05:10.306Z,260
2018-06-13T07:06:10.297Z,285
2018-06-13T07:07:10.295Z,305
2018-06-13T07:08:10.550Z,330
2018-06-13T07:09:10.560Z,355
2018-06-13T07:10:10.341Z,370
2018-06-13T07:11:10.048Z,390
2018-06-13T07:12:10.039Z,400
2018-06-13T07:13:10.590Z,395
2018-06-13T07:14:10.555Z,390
2018-06-13T07:15:10.296Z,385
2018-06-13T07:16:10.020Z,385
2018-06-13T07:17:10.535Z,400
2018-06-13T07:18:10.272Z,425
2018-06-13T07:19:10.502Z,435
2018-06-13T07:20:10.273Z,445
2018-06-13T07:21:10.004Z,465
2018-06-13T07:22:10.020Z,480
2018-06-13T07:23:10.307Z,485
2018-06-13T07:24:10.284Z,480
2018-06-13T07:25:10.760Z,460
2018-06-13T07:26:10.257Z,440
2018-06-13T07:27:10.253Z,425
2018-06-13T07:28:10.012Z,400
2018-06-13T07:29:10.517Z,390
2018-06-13T07:30:10.247Z,400
2018-06-13T07:31:09.985Z,400
2018-06-13T07:32:10.493Z,395
2018-06-13T07:33:10.005Z,420
2018-06-13T07:34:10.525Z,485
2018-06-13T07:35:10.233Z,515
2018-06-13T07:36:10.287Z,495
2018-06-13T07:37:10.504Z,475
2018-06-13T07:38:09.989Z,450
2018-06-13T07:39:10.246Z,435
2018-06-13T07:40:10.484Z,460
2018-06-13T07:41:09.984Z,480
2018-06-13T07:42:10.270Z,485
2018-06-13T07:43:09.972Z,460
2018-06-13T07:44:09.980Z,435
2018-06-13T07:45:10.551Z,420
2018-06-13T07:46:09.986Z,435
2018-06-13T07:47:10.221Z,490
2018-06-13T07:48:10.003Z,560
2018-06-13T07:49:10.215Z,605
2018-06-13T07:50:09.981Z,620
2018-06-13T07:51:10.001Z,615
2018-06-13T07:52:09.981Z,570
2018-06-13T07:53:10.513Z,525
2018-06-13T07:54:10.087Z,515
2018-06-13T07:55:10.706Z,510
2018-06-13T07:56:10.301Z,520
2018-06-13T07:57:10.525Z,545
2018-06-13T07:58:09.954Z,585
2018-06-13T07:59:10.519Z,620
2018-06-13T08:00:10.225Z,655
2018-06-13T08:01:10.459Z,685
2018-06-13T08:02:09.997Z,720
2018-06-13T08:03:10.258Z,755
2018-06-13T08:04:10.209Z,780
2018-06-13T08:05:10.223Z,800
2018-06-13T08:06:10.210Z,815
2018-06-13T08:07:10.467Z,830
2018-06-13T08:08:10.202Z,835
2018-06-13T08:09:10.205Z,850
2018-06-13T08:10:10.491Z,855
2018-06-13T08:11:10.463Z,875
2018-06-13T08:12:10.217Z,900
2018-06-13T08:13:09.969Z,920
2018-06-13T08:14:10.504Z,880
2018-06-13T08:15:10.498Z,770
2018-06-13T08:16:10.172Z,710
2018-06-13T08:17:10.231Z,670
2018-06-13T08:18:10.188Z,680
2018-06-13T08:19:10.498Z,745
2018-06-13T08:20:09.988Z,770
2018-06-13T08:21:09.967Z,770
2018-06-13T08:22:10.703Z,775
2018-06-13T08:23:10.232Z,780
2018-06-13T08:24:10.515Z,765
2018-06-13T08:25:10.224Z,730
2018-06-13T08:26:10.113Z,725
2018-06-13T08:27:09.760Z,760
2018-06-13T08:28:10.001Z,830
2018-06-13T08:29:10.277Z,910
2018-06-13T08:30:10.502Z,985
2018-06-13T08:31:10.530Z,895
2018-06-13T08:32:10.500Z,835
2018-06-13T08:33:09.742Z,860
2018-06-13T08:34:10.526Z,920
2018-06-13T08:35:10.035Z,1095
2018-06-13T08:36:10.253Z,1460
2018-06-13T08:37:10.555Z,1735
2018-06-13T08:38:10.019Z,1010
2018-06-13T08:39:10.299Z,865
2018-06-13T08:40:10.317Z,740
2018-06-13T08:41:10.325Z,625
2018-06-13T08:42:10.039Z,525
2018-06-13T08:43:09.798Z,435
2018-06-13T08:44:10.566Z,370
2018-06-13T08:45:10.542Z,345
2018-06-13T08:46:10.546Z,350
2018-06-13T08:47:10.047Z,395
2018-06-13T08:48:10.550Z,445
2018-06-13T08:49:10.333Z,500
2018-06-13T08:50:10.576Z,545
2018-06-13T08:51:11.353Z,605
2018-06-13T08:52:10.673Z,665
2018-06-13T08:53:10.335Z,705
2018-06-13T08:54:10.487Z,730
2018-06-13T08:55:10.331Z,730
2018-06-13T08:56:10.646Z,740
2018-06-13T08:57:10.622Z,755
2018-06-13T08:58:10.611Z,770
2018-06-13T08:59:10.134Z,750
2018-06-13T09:00:10.143Z,710
2018-06-13T09:01:10.711Z,675
2018-06-13T09:02:10.826Z,670
2018-06-13T09:03:10.660Z,675
2018-06-13T09:04:10.645Z,685
2018-06-13T09:05:10.656Z,725
2018-06-13T09:06:10.438Z,800
2018-06-13T09:07:10.357Z,830
2018-06-13T09:08:10.380Z,865
2018-06-13T09:09:10.819Z,870
2018-06-13T09:10:09.926Z,840
2018-06-13T09:11:10.383Z,800
2018-06-13T09:12:10.658Z,805
2018-06-13T09:13:10.374Z,820
2018-06-13T09:14:10.390Z,840
2018-06-13T09:15:10.253Z,860
2018-06-13T09:16:10.411Z,895
2018-06-13T09:17:10.664Z,920
2018-06-13T09:18:10.870Z,865
2018-06-13T09:19:10.408Z,795
2018-06-13T09:20:10.856Z,740
2018-06-13T09:21:10.173Z,710
2018-06-13T09:22:10.420Z,685
2018-06-13T09:23:11.146Z,685
2018-06-13T09:24:10.423Z,695
2018-06-13T09:25:10.486Z,715
2018-06-13T09:26:10.477Z,740
2018-06-13T09:27:10.439Z,765
2018-06-13T09:28:10.694Z,795
2018-06-13T09:29:10.461Z,835
2018-06-13T09:30:09.687Z,870
2018-06-13T09:31:10.322Z,910
2018-06-13T09:32:10.694Z,910
2018-06-13T09:33:10.468Z,875
2018-06-13T09:34:10.299Z,790
2018-06-13T09:35:10.523Z,710
2018-06-13T09:36:10.734Z,640
2018-06-13T09:37:10.546Z,580
2018-06-13T09:38:10.246Z,525
2018-06-13T09:39:10.252Z,465
2018-06-13T09:40:10.241Z,425
2018-06-13T09:41:10.832Z,395
2018-06-13T09:42:10.802Z,375
2018-06-13T09:43:10.776Z,360
2018-06-13T09:44:10.658Z,345
2018-06-13T09:45:10.499Z,335
2018-06-13T09:46:19.181Z,330
2018-06-13T09:47:28.201Z,330
2018-06-13T09:48:10.269Z,330
2018-06-13T09:49:10.781Z,340
2018-06-13T09:50:10.719Z,345
2018-06-13T09:51:10.269Z,345
2018-06-13T09:52:10.830Z,340
2018-06-13T09:53:10.520Z,340
2018-06-13T09:54:10.566Z,355
2018-06-13T09:55:10.808Z,370
2018-06-13T09:56:10.552Z,390
2018-06-13T09:57:10.789Z,405
2018-06-13T09:58:10.532Z,420
2018-06-13T09:59:10.304Z,440
2018-06-13T10:00:10.579Z,450
2018-06-13T10:01:10.063Z,460
2018-06-13T10:02:10.646Z,475
2018-06-13T10:03:10.552Z,495
2018-06-13T10:04:10.931Z,520
2018-06-13T10:05:10.625Z,540
2018-06-13T10:06:10.708Z,570
2018-06-13T10:07:10.566Z,595
2018-06-13T10:08:10.837Z,615
2018-06-13T10:09:10.871Z,645
2018-06-13T10:10:10.581Z,680
2018-06-13T10:11:10.686Z,700
2018-06-13T10:12:10.352Z,735
2018-06-13T10:13:10.614Z,760
2018-06-13T10:14:10.609Z,785
2018-06-13T10:15:10.835Z,800
2018-06-13T10:16:10.566Z,805
2018-06-13T10:17:10.844Z,800
2018-06-13T10:18:10.842Z,795
2018-06-13T10:19:10.830Z,830
2018-06-13T10:20:10.325Z,885
2018-06-13T10:21:10.576Z,910
2018-06-13T10:22:10.696Z,930
2018-06-13T10:23:10.583Z,940
2018-06-13T10:24:10.582Z,950
2018-06-13T10:25:10.601Z,970
2018-06-13T10:26:10.589Z,970
2018-06-13T10:27:10.626Z,965
2018-06-13T10:28:10.606Z,960
2018-06-13T10:29:10.613Z,955
2018-06-13T10:30:10.858Z,945
2018-06-13T10:31:10.739Z,930
2018-06-13T10:32:10.594Z,925
2018-06-13T10:33:10.345Z,925
2018-06-13T10:34:10.917Z,920
2018-06-13T10:35:10.756Z,910
2018-06-13T10:36:10.121Z,905
2018-06-13T10:37:10.902Z,915
2018-06-13T10:38:10.660Z,915
2018-06-13T10:39:10.385Z,920
2018-06-13T10:40:10.893Z,910
2018-06-13T10:41:10.640Z,905
2018-06-13T10:42:10.643Z,900
2018-06-13T10:43:10.924Z,905
2018-06-13T10:44:10.731Z,905
2018-06-13T10:45:10.405Z,910
2018-06-13T10:46:10.396Z,910
2018-06-13T10:47:10.169Z,910
2018-06-13T10:48:10.750Z,905
2018-06-13T10:49:10.759Z,915
2018-06-13T10:50:10.667Z,915
2018-06-13T10:51:11.063Z,925
2018-06-13T10:52:10.732Z,940
2018-06-13T10:53:10.504Z,930
2018-06-13T10:54:10.488Z,935
2018-06-13T10:55:10.709Z,935
2018-06-13T10:56:10.780Z,940
2018-06-13T10:57:10.508Z,940
2018-06-13T10:58:10.721Z,930
2018-06-13T10:59:10.502Z,905
2018-06-13T11:00:10.755Z,895
2018-06-13T11:01:11.037Z,900
2018-06-13T11:02:10.326Z,915
2018-06-13T11:03:10.807Z,925
2018-06-13T11:04:10.813Z,925
2018-06-13T11:05:11.052Z,900
2018-06-13T11:06:10.813Z,895
2018-06-13T11:07:10.790Z,875
2018-06-13T11:08:11.026Z,855
2018-06-13T11:09:11.032Z,840
2018-06-13T11:10:11.045Z,835
2018-06-13T11:11:10.533Z,840
2018-06-13T11:12:11.094Z,860
2018-06-13T11:13:11.055Z,895
2018-06-13T11:14:11.047Z,925
2018-06-13T11:15:10.800Z,940
2018-06-13T11:16:10.798Z,940
2018-06-13T11:17:10.816Z,935
2018-06-13T11:18:10.815Z,935
2018-06-13T11:19:11.461Z,925
2018-06-13T11:20:10.889Z,920
2018-06-13T11:21:10.965Z,915
2018-06-13T11:22:10.630Z,920
2018-06-13T11:23:10.860Z,925
2018-06-13T11:24:10.350Z,925
2018-06-13T11:25:10.922Z,935
2018-06-13T11:26:10.719Z,945
2018-06-13T11:27:10.910Z,950
2018-06-13T11:28:10.882Z,955
2018-06-13T11:29:10.879Z,950
2018-06-13T11:30:11.166Z,945
2018-06-13T11:31:10.909Z,955
2018-06-13T11:32:11.135Z,955
2018-06-13T11:33:10.934Z,960
2018-06-13T11:34:11.162Z,955
2018-06-13T11:35:10.962Z,945
2018-06-13T11:36:10.935Z,935
2018-06-13T11:37:10.981Z,925
2018-06-13T11:38:10.965Z,905
2018-06-13T11:39:11.269Z,890
2018-06-13T11:40:10.928Z,870
2018-06-13T11:41:11.426Z,855
2018-06-13T11:42:11.192Z,835
2018-06-13T11:43:11.214Z,810
2018-06-13T11:44:11.008Z,785
2018-06-13T11:45:11.468Z,755
2018-06-13T11:46:11.250Z,740
2018-06-13T11:47:11.288Z,725
2018-06-13T11:48:11.541Z,725
2018-06-13T11:49:11.319Z,725
2018-06-13T11:50:10.766Z,720
2018-06-13T11:51:10.743Z,705
2018-06-13T11:52:10.745Z,685
2018-06-13T11:53:10.734Z,675
2018-06-13T11:54:10.773Z,660
2018-06-13T11:55:11.493Z,645
2018-06-13T11:56:11.014Z,640
2018-06-13T11:57:11.340Z,640
2018-06-13T11:58:11.063Z,640
